Strona główna
METAR-TAF:

METAR-TAF

Lotnisko :

Port lotniczy Cardiff

Cardiff, Walia

Szerokość geograficzna: 51-24N, Długość geograficzna: 003-21W, wysokość: 67 m

Aktualna obserwacja pogody

Raport powstał 12 minut temu, godzina 18:20 UTC
Wiatr 8 kt od wschód
Temperatura 24°C
Wilgotność 31%
Ciśnienie 1019 hPa
Widzialność 10 km lub więcej

METAR: EGFF 301820Z AUTO 08008KT 9999 NCD 24/06 Q1019

czas: 19:32 (18:32 UTC)

Prognoza

Raport powstał 1 godzina i 30 minut temu, godzina 17:02 UTC
Prognoza ważna od 30 godzina 18 UTC do 31 godzina 18 UTC
Wiatr 8 kt od wschód
Widzialność 10 km lub więcej
Brak chmur poniżej 1500 m i brak chmur cumulonimbus

TAF: EGFF 301702Z 3018/3118 10008KT CAVOK

Obserwacja i prognoza pogody dla ponad 4000 lotnisk (raport METAR i TAF).

Dostępne stacje oznaczono żółtymi i czerwonymi punktami na mapie.

Najedź kursorem aby zobaczyć nazwę stacji.

Kliknij aby zobaczyć obserwacje i prognozy pogody.

Aby zmienić mapę: kliknij na zielony przycisk z czarnym krzyżykiem, aby powiększyć; na zielony przycisk z myślnikiem, aby pomniejszyć; na zielone strzałki, aby przejść do map sąsiednich.


METAR-TAF: